createdAt,value
2022-11-10T00:01:36.691Z,2.53
2022-11-10T00:04:21.757Z,2.92
2022-11-10T00:07:06.862Z,2.78
2022-11-10T00:09:52.680Z,3.15
2022-11-10T00:12:38.119Z,2.97
2022-11-10T00:15:41.779Z,3.63
2022-11-10T00:18:27.055Z,2.70
2022-11-10T00:21:13.416Z,2.58
2022-11-10T00:23:58.583Z,2.33
2022-11-10T00:26:43.605Z,2.75
2022-11-10T00:29:28.708Z,3.20
2022-11-10T00:32:14.202Z,2.35
2022-11-10T00:34:59.281Z,2.55
2022-11-10T00:37:44.540Z,2.50
2022-11-10T00:40:29.765Z,2.40
2022-11-10T00:43:14.997Z,2.53
2022-11-10T00:46:00.285Z,2.90
2022-11-10T00:48:45.488Z,2.47
2022-11-10T00:51:30.856Z,2.60
2022-11-10T00:54:15.826Z,2.70
2022-11-10T00:57:01.016Z,2.53
2022-11-10T00:59:46.297Z,3.22
2022-11-10T01:02:31.233Z,2.30
2022-11-10T01:05:16.733Z,3.33
2022-11-10T01:08:01.947Z,2.58
2022-11-10T01:10:47.227Z,3.08
2022-11-10T01:13:32.783Z,2.75
2022-11-10T01:16:26.281Z,2.50
2022-11-10T01:19:11.566Z,2.65
2022-11-10T01:21:57.992Z,3.35
2022-11-10T01:24:43.273Z,2.40
2022-11-10T01:27:28.183Z,2.90
2022-11-10T01:30:13.969Z,2.67
2022-11-10T01:32:59.266Z,2.22
2022-11-10T01:35:45.904Z,3.10
2022-11-10T01:38:33.532Z,3.00
2022-11-10T01:41:18.560Z,2.40
2022-11-10T01:44:14.402Z,3.33
2022-11-10T01:46:59.401Z,3.55
2022-11-10T01:49:44.575Z,2.90
2022-11-10T01:52:29.583Z,2.85
2022-11-10T01:55:15.576Z,2.58
2022-11-10T01:58:00.879Z,2.70
2022-11-10T02:00:46.005Z,2.97
2022-11-10T02:03:35.762Z,2.58
2022-11-10T02:06:23.013Z,2.55
2022-11-10T02:09:08.080Z,2.20
2022-11-10T02:11:54.296Z,2.97
2022-11-10T02:14:39.557Z,2.50
2022-11-10T02:17:24.626Z,2.92
2022-11-10T02:20:12.686Z,2.40
2022-11-10T02:22:57.966Z,3.22
2022-11-10T02:25:43.176Z,2.80
2022-11-10T02:28:28.393Z,2.72
2022-11-10T02:31:13.755Z,2.33
2022-11-10T02:33:59.014Z,2.95
2022-11-10T02:36:44.261Z,2.65
2022-11-10T02:39:29.228Z,2.50
2022-11-10T02:42:14.553Z,2.10
2022-11-10T02:44:59.952Z,2.00
2022-11-10T02:47:45.253Z,2.72
2022-11-10T02:50:30.576Z,2.55
2022-11-10T02:53:15.913Z,2.78
2022-11-10T02:56:01.133Z,2.55
2022-11-10T02:58:46.153Z,2.70
2022-11-10T03:01:31.500Z,2.67
2022-11-10T03:04:16.767Z,2.60
2022-11-10T03:07:01.916Z,2.58
2022-11-10T03:09:47.287Z,2.92
2022-11-10T03:12:32.227Z,3.20
2022-11-10T03:15:17.269Z,3.00
2022-11-10T03:18:03.995Z,2.58
2022-11-10T03:20:49.761Z,2.33
2022-11-10T03:23:35.657Z,2.10
2022-11-10T03:26:21.865Z,2.28
2022-11-10T03:29:06.859Z,2.83
2022-11-10T03:31:51.962Z,2.50
2022-11-10T03:34:36.890Z,3.33
2022-11-10T03:37:22.255Z,2.42
2022-11-10T03:40:08.165Z,2.88
2022-11-10T03:42:53.235Z,2.40
2022-11-10T03:45:38.460Z,2.85
2022-11-10T03:48:23.608Z,2.95
2022-11-10T03:51:09.054Z,4.05
2022-11-10T03:53:54.311Z,2.72
2022-11-10T03:56:39.711Z,2.90
2022-11-10T03:59:24.937Z,2.92
2022-11-10T04:02:09.962Z,3.08
2022-11-10T04:05:13.608Z,3.00
2022-11-10T04:08:22.662Z,2.83
2022-11-10T04:11:07.612Z,2.80
2022-11-10T04:14:11.772Z,2.67
2022-11-10T04:16:57.484Z,2.63
2022-11-10T04:19:42.445Z,2.70
2022-11-10T04:22:46.209Z,2.35
2022-11-10T04:25:51.434Z,2.85
2022-11-10T04:28:36.721Z,2.58
2022-11-10T04:31:22.859Z,3.33
2022-11-10T04:34:10.744Z,3.20
2022-11-10T04:36:55.735Z,3.25
2022-11-10T04:39:40.908Z,3.35
2022-11-10T04:42:26.236Z,3.58
2022-11-10T04:45:11.433Z,3.42
2022-11-10T04:47:56.478Z,3.17
2022-11-10T04:50:41.570Z,2.45
2022-11-10T04:53:26.888Z,2.60
2022-11-10T04:56:22.708Z,2.58
2022-11-10T04:59:08.191Z,2.80
2022-11-10T05:01:53.258Z,2.88
2022-11-10T05:04:38.325Z,3.33
2022-11-10T05:07:23.488Z,2.90
2022-11-10T05:10:08.743Z,3.72
2022-11-10T05:12:55.119Z,2.75
2022-11-10T05:15:42.050Z,3.65
2022-11-10T05:18:27.177Z,2.90
2022-11-10T05:21:12.125Z,3.00
2022-11-10T05:23:57.206Z,2.92
2022-11-10T05:26:42.515Z,2.85
2022-11-10T05:29:27.732Z,3.10
2022-11-10T05:32:12.839Z,2.55
2022-11-10T05:34:58.067Z,2.85
2022-11-10T05:37:43.500Z,2.53
2022-11-10T05:40:29.124Z,2.97
2022-11-10T05:43:14.587Z,3.35
2022-11-10T05:45:59.800Z,2.88
2022-11-10T05:48:44.973Z,3.40
2022-11-10T05:51:30.023Z,3.17
2022-11-10T05:54:15.436Z,3.13
2022-11-10T05:57:00.443Z,2.50
2022-11-10T05:59:45.408Z,2.85
2022-11-10T06:02:30.813Z,2.58
2022-11-10T06:05:16.037Z,2.63
2022-11-10T06:08:01.787Z,2.70
2022-11-10T06:10:47.145Z,2.80
2022-11-10T06:13:32.370Z,2.78
2022-11-10T06:16:17.751Z,3.33
2022-11-10T06:19:02.927Z,3.05
2022-11-10T06:21:48.077Z,2.92
2022-11-10T06:24:33.339Z,3.08
2022-11-10T06:27:18.365Z,2.72
2022-11-10T06:30:04.382Z,2.65
2022-11-10T06:32:49.769Z,3.28
2022-11-10T06:35:34.837Z,3.97
2022-11-10T06:38:20.213Z,2.90
2022-11-10T06:41:05.269Z,2.40
2022-11-10T06:43:50.222Z,2.70
2022-11-10T06:46:39.627Z,2.85
2022-11-10T06:49:27.404Z,2.72
2022-11-10T06:52:13.405Z,2.63
2022-11-10T06:54:59.112Z,2.63
2022-11-10T06:57:44.188Z,3.08
2022-11-10T07:00:30.425Z,3.55
2022-11-10T07:03:16.438Z,3.05
2022-11-10T07:06:01.586Z,3.55
2022-11-10T07:08:47.322Z,2.70
2022-11-10T07:11:32.233Z,4.25
2022-11-10T07:14:17.231Z,4.15
2022-11-10T07:17:02.407Z,3.75
2022-11-10T07:19:47.748Z,3.58
2022-11-10T07:22:32.993Z,3.38
2022-11-10T07:25:18.180Z,2.83
2022-11-10T07:28:05.996Z,4.30
2022-11-10T07:30:51.033Z,2.78
2022-11-10T07:33:36.266Z,3.53
2022-11-10T07:36:21.545Z,3.35
2022-11-10T07:39:06.969Z,3.63
2022-11-10T07:41:52.846Z,3.05
2022-11-10T07:44:38.016Z,2.97
2022-11-10T07:47:24.211Z,3.20
2022-11-10T07:50:09.592Z,2.88
2022-11-10T07:53:05.378Z,4.60
2022-11-10T07:55:50.482Z,3.78
2022-11-10T07:58:35.749Z,3.33
2022-11-10T08:01:20.897Z,3.13
2022-11-10T08:04:06.214Z,2.35
2022-11-10T08:06:51.697Z,2.47
2022-11-10T08:09:36.514Z,2.60
2022-11-10T08:12:21.832Z,3.15
2022-11-10T08:15:07.412Z,2.67
2022-11-10T08:17:52.644Z,2.60
2022-11-10T08:20:37.984Z,2.30
2022-11-10T08:23:23.510Z,3.10
2022-11-10T08:26:08.720Z,2.47
2022-11-10T08:28:54.665Z,2.33
2022-11-10T08:31:40.030Z,3.05
2022-11-10T08:34:24.913Z,2.40
2022-11-10T08:37:09.933Z,2.50
2022-11-10T08:39:55.175Z,2.60
2022-11-10T08:42:40.012Z,3.28
2022-11-10T08:45:25.511Z,2.80
2022-11-10T08:48:12.947Z,3.08
2022-11-10T08:51:00.035Z,3.00
2022-11-10T08:53:45.022Z,2.85
2022-11-10T08:56:31.140Z,2.42
2022-11-10T08:59:16.383Z,2.80
2022-11-10T09:02:01.743Z,2.60
2022-11-10T09:04:46.836Z,2.85
2022-11-10T09:07:32.193Z,2.67
2022-11-10T09:10:17.197Z,3.03
2022-11-10T09:13:03.214Z,2.80
2022-11-10T09:15:48.127Z,3.00
2022-11-10T09:18:33.748Z,2.92
2022-11-10T09:21:18.748Z,2.45
2022-11-10T09:24:04.225Z,2.42
2022-11-10T09:26:49.633Z,2.80
2022-11-10T09:29:34.492Z,2.67
2022-11-10T09:32:19.747Z,2.80
2022-11-10T09:35:05.780Z,2.53
2022-11-10T09:37:50.949Z,2.60
2022-11-10T09:40:50.767Z,2.33
2022-11-10T09:44:02.039Z,2.72
2022-11-10T09:47:18.944Z,2.15
2022-11-10T09:50:30.583Z,2.55
2022-11-10T09:53:23.035Z,2.22
2022-11-10T09:56:12.311Z,3.03
2022-11-10T09:58:57.667Z,2.60
2022-11-10T10:01:56.187Z,2.28
2022-11-10T10:05:02.250Z,3.13
2022-11-10T10:08:19.481Z,2.70
2022-11-10T10:11:35.722Z,2.60
2022-11-10T10:14:28.150Z,2.40
2022-11-10T10:17:26.197Z,2.60
2022-11-10T10:20:35.340Z,2.25
2022-11-10T10:24:02.040Z,2.38
2022-11-10T10:26:39.843Z,2.65
2022-11-10T10:29:34.567Z,2.30
2022-11-10T10:32:22.792Z,2.42
2022-11-10T10:35:12.898Z,2.58
2022-11-10T10:37:58.445Z,3.08
2022-11-10T10:40:44.179Z,2.03
2022-11-10T10:43:29.276Z,2.53
2022-11-10T10:46:15.812Z,2.45
2022-11-10T10:49:29.196Z,2.45
2022-11-10T10:52:24.713Z,2.53
2022-11-10T10:55:13.033Z,1.92
2022-11-10T10:58:18.040Z,2.63
2022-11-10T11:01:15.482Z,1.83
2022-11-10T11:04:06.015Z,2.35
2022-11-10T11:06:59.910Z,1.88
2022-11-10T11:09:45.488Z,2.20
2022-11-10T11:12:33.630Z,2.00
2022-11-10T11:15:40.937Z,2.28
2022-11-10T11:18:59.943Z,2.08
2022-11-10T11:22:28.949Z,2.13
2022-11-10T11:25:55.944Z,2.05
2022-11-10T11:29:35.944Z,2.53
2022-11-10T11:33:06.941Z,2.45
2022-11-10T11:36:32.976Z,2.65
2022-11-10T11:40:18.990Z,2.83
2022-11-10T11:44:04.982Z,2.13
2022-11-10T11:47:51.941Z,2.30
2022-11-10T11:51:18.964Z,1.70
2022-11-10T11:54:41.965Z,2.05
2022-11-10T11:58:35.955Z,1.55
2022-11-10T12:01:59.972Z,1.85
2022-11-10T12:05:37.952Z,1.80
2022-11-10T12:09:19.980Z,1.80
2022-11-10T12:12:50.954Z,2.42
2022-11-10T12:16:15.973Z,1.92
2022-11-10T12:19:55.961Z,1.75
2022-11-10T12:23:29.976Z,1.60
2022-11-10T12:27:01.936Z,1.65
2022-11-10T12:30:26.007Z,2.20
2022-11-10T12:33:47.958Z,1.65
2022-11-10T12:40:29.955Z,1.88
2022-11-10T12:43:53.971Z,2.03
2022-11-10T12:47:14.978Z,2.20
2022-11-10T12:50:54.970Z,1.90
2022-11-10T12:54:16.862Z,1.80
2022-11-10T12:57:39.962Z,1.30
2022-11-10T13:01:02.028Z,2.22
2022-11-10T13:04:20.995Z,2.22
2022-11-10T13:07:39.994Z,1.70
2022-11-10T13:11:07.998Z,1.90
2022-11-10T13:14:54.023Z,1.67
2022-11-10T13:18:12.975Z,1.83
2022-11-10T13:22:05.024Z,2.17
2022-11-10T13:25:50.978Z,1.95
2022-11-10T13:29:11.983Z,2.03
2022-11-10T13:32:37.978Z,1.90
2022-11-10T13:35:56.990Z,1.65
2022-11-10T13:39:29.977Z,1.85
2022-11-10T13:42:48.991Z,2.00
2022-11-10T13:46:08.017Z,1.60
2022-11-10T13:49:38.021Z,2.33
2022-11-10T13:53:05.026Z,1.80
2022-11-10T13:57:05.012Z,1.77
2022-11-10T14:00:30.007Z,1.40
2022-11-10T14:04:01.148Z,1.52
2022-11-10T14:07:29.021Z,1.60
2022-11-10T14:10:46.013Z,1.95
2022-11-10T14:14:09.034Z,1.73
2022-11-10T14:17:32.215Z,1.50
2022-11-10T14:20:54.187Z,1.42
2022-11-10T14:24:26.011Z,1.90
2022-11-10T14:27:48.036Z,1.77
2022-11-10T14:34:19.058Z,1.80
2022-11-10T14:37:40.023Z,1.60
2022-11-10T14:40:59.029Z,1.40
2022-11-10T14:44:20.066Z,1.50
2022-11-10T14:47:44.172Z,1.57
2022-11-10T14:51:03.018Z,1.73
2022-11-10T14:54:27.119Z,1.38
2022-11-10T14:57:46.064Z,1.63
2022-11-10T15:00:58.075Z,1.67
2022-11-10T15:04:19.215Z,1.75
2022-11-10T15:07:39.021Z,2.00
2022-11-10T15:10:56.134Z,1.92
2022-11-10T15:14:15.041Z,1.88
2022-11-10T15:17:34.070Z,2.08
2022-11-10T15:20:54.054Z,1.35
2022-11-10T15:24:16.068Z,1.70
2022-11-10T15:27:38.043Z,1.92
2022-11-10T15:34:43.080Z,1.95
2022-11-10T15:38:41.065Z,1.88
2022-11-10T15:42:01.051Z,1.58
2022-11-10T15:45:13.067Z,1.95
2022-11-10T15:48:33.082Z,1.60
2022-11-10T15:51:52.058Z,1.75
2022-11-10T15:55:04.055Z,1.75
2022-11-10T15:58:34.078Z,1.85
2022-11-10T16:01:53.100Z,3.13
2022-11-10T16:05:12.075Z,2.40
2022-11-10T16:08:33.065Z,2.30
2022-11-10T16:11:52.089Z,1.95
2022-11-10T16:15:11.107Z,2.00
2022-11-10T16:18:35.081Z,2.05
2022-11-10T16:21:54.069Z,1.85
2022-11-10T16:25:20.496Z,1.70
2022-11-10T16:28:41.234Z,1.50
2022-11-10T16:32:00.086Z,1.90
2022-11-10T16:35:12.081Z,2.00
2022-11-10T16:38:32.098Z,1.90
2022-11-10T16:41:51.115Z,2.65
2022-11-10T16:45:03.102Z,2.08
2022-11-10T16:48:22.470Z,2.20
2022-11-10T16:51:53.102Z,1.50
2022-11-10T16:55:05.114Z,1.80
2022-11-10T16:58:24.432Z,1.92
2022-11-10T17:01:44.144Z,1.65
2022-11-10T17:05:03.084Z,2.85
2022-11-10T17:08:39.329Z,2.00
2022-11-10T17:11:58.173Z,1.92
2022-11-10T17:15:10.137Z,1.70
2022-11-10T17:18:31.135Z,2.38
2022-11-10T17:21:50.110Z,2.00
2022-11-10T17:25:03.087Z,2.20
2022-11-10T17:28:26.119Z,2.28
2022-11-10T17:31:45.093Z,2.10
2022-11-10T17:34:57.128Z,1.75
2022-11-10T17:38:10.099Z,2.30
2022-11-10T17:41:32.102Z,1.98
2022-11-10T17:44:51.106Z,2.27
2022-11-10T17:48:10.159Z,2.30
2022-11-10T17:51:32.103Z,2.30
2022-11-10T17:54:44.129Z,1.85
2022-11-10T17:58:04.147Z,1.95
2022-11-10T18:01:29.165Z,2.47
2022-11-10T18:04:41.115Z,2.17
2022-11-10T18:08:04.160Z,3.13
2022-11-10T18:11:24.136Z,2.15
2022-11-10T18:14:43.137Z,2.47
2022-11-10T18:18:02.111Z,2.10
2022-11-10T18:21:21.135Z,2.35
2022-11-10T18:24:40.144Z,2.97
2022-11-10T18:27:59.149Z,2.80
2022-11-10T18:31:21.128Z,3.90
2022-11-10T18:34:40.152Z,3.05
2022-11-10T18:37:59.128Z,3.20
2022-11-10T18:41:37.127Z,2.97
2022-11-10T18:44:49.141Z,3.20
2022-11-10T18:48:14.174Z,3.28
2022-11-10T18:51:33.141Z,3.00
2022-11-10T18:54:45.157Z,3.30
2022-11-10T18:58:04.129Z,3.38
2022-11-10T19:01:24.187Z,3.13
2022-11-10T19:04:36.135Z,3.00
2022-11-10T19:07:55.183Z,2.92
2022-11-10T19:11:14.269Z,3.50
2022-11-10T19:14:26.153Z,3.22
2022-11-10T19:17:45.139Z,3.28
2022-11-10T19:21:04.148Z,2.72
2022-11-10T19:24:27.247Z,2.90
2022-11-10T19:27:47.188Z,2.80
2022-11-10T19:31:06.168Z,3.30
2022-11-10T19:34:18.200Z,2.78
2022-11-10T19:37:37.191Z,2.67
2022-11-10T19:40:56.155Z,2.92
2022-11-10T19:44:08.183Z,2.70
2022-11-10T19:47:27.178Z,2.70
2022-11-10T19:50:49.450Z,2.88
2022-11-10T19:54:15.159Z,3.30
2022-11-10T19:57:34.198Z,3.85
2022-11-10T20:00:53.357Z,3.53
2022-11-10T20:04:06.192Z,3.95
2022-11-10T20:07:43.198Z,3.60
2022-11-10T20:11:02.386Z,3.45
2022-11-10T20:14:14.177Z,3.80
2022-11-10T20:17:33.180Z,4.07
2022-11-10T20:20:52.190Z,3.80
2022-11-10T20:24:04.218Z,3.47
2022-11-10T20:27:16.178Z,3.67
2022-11-10T20:30:35.223Z,4.65
2022-11-10T20:33:54.199Z,4.63
2022-11-10T20:37:13.212Z,3.97
2022-11-10T20:40:44.503Z,4.00
2022-11-10T20:43:56.194Z,4.20
2022-11-10T20:47:15.223Z,4.28
2022-11-10T20:50:35.197Z,4.15
2022-11-10T20:53:54.189Z,4.15
2022-11-10T20:57:06.218Z,4.40
2022-11-10T21:00:25.181Z,3.90
2022-11-10T21:03:38.254Z,4.50
2022-11-10T21:06:57.228Z,4.35
2022-11-10T21:10:16.193Z,3.90
2022-11-10T21:13:29.196Z,3.72
2022-11-10T21:16:48.239Z,3.80
2022-11-10T21:20:07.223Z,4.07
2022-11-10T21:23:26.385Z,3.88
2022-11-10T21:26:40.201Z,3.80
2022-11-10T21:29:59.222Z,4.20
2022-11-10T21:33:12.199Z,4.50
2022-11-10T21:36:35.261Z,4.50
2022-11-10T21:39:54.261Z,4.35
2022-11-10T21:43:13.236Z,4.60
2022-11-10T21:46:32.300Z,5.10
2022-11-10T21:49:51.349Z,4.88
2022-11-10T21:53:03.204Z,4.68
2022-11-10T21:56:23.274Z,4.80
2022-11-10T21:59:42.225Z,5.10
2022-11-10T22:02:54.359Z,5.22
2022-11-10T22:06:24.493Z,5.45
2022-11-10T22:10:01.535Z,6.07
2022-11-10T22:13:39.266Z,5.75
2022-11-10T22:17:20.265Z,5.57
2022-11-10T22:20:39.279Z,5.28
2022-11-10T22:24:16.232Z,5.32
2022-11-10T22:27:35.405Z,5.50
2022-11-10T22:30:55.222Z,5.60
2022-11-10T22:34:14.276Z,5.38
2022-11-10T22:37:28.227Z,6.10
2022-11-10T22:41:07.258Z,5.22
2022-11-10T22:44:26.257Z,6.75
2022-11-10T22:47:58.430Z,5.72
2022-11-10T22:54:39.059Z,4.97
2022-11-10T22:57:57.227Z,5.43
2022-11-10T23:01:20.339Z,6.47
2022-11-10T23:04:39.341Z,6.88
2022-11-10T23:07:51.277Z,6.40
2022-11-10T23:11:14.361Z,6.50
2022-11-10T23:14:34.284Z,6.72
2022-11-10T23:17:47.274Z,6.07
2022-11-10T23:21:12.419Z,6.72
2022-11-10T23:24:31.324Z,7.03
2022-11-10T23:27:43.364Z,6.82
2022-11-10T23:31:02.303Z,7.22
2022-11-10T23:34:24.107Z,6.25
2022-11-10T23:37:42.335Z,7.40
2022-11-10T23:40:54.359Z,7.03
2022-11-10T23:44:14.368Z,6.97
2022-11-10T23:47:26.343Z,6.65
2022-11-10T23:50:47.116Z,6.10
2022-11-10T23:54:05.451Z,6.90
2022-11-10T23:57:17.314Z,6.32
